Time;durP1;ratioP1;P1;durP2;ratioP2;P2;SDS_P1;SDS_P2;PMS_P1;PMS_P2;Temp;Humidity;BMP_temperature;BMP_pressure;BME280_temperature;BME280_humidity;BME280_pressure;Samples;Min_cycle;Max_cycle;Signal;HPM_P1;HPM_P2
2024/01/21 00:01:29;;;;;;;5.50;5.10;;;;;;;3.21;97.18;100758.19;5113307;28;20440;-64
2024/01/21 00:03:57;;;;;;;4.97;4.73;;;;;;;3.23;97.16;100758.91;5112477;28;20190;-64
2024/01/21 00:06:24;;;;;;;4.93;4.63;;;;;;;3.23;97.50;100756.28;5113611;28;20222;-64
2024/01/21 00:08:51;;;;;;;5.53;5.17;;;;;;;3.23;98.08;100756.28;5113797;28;20440;-64
2024/01/21 00:11:18;;;;;;;5.23;4.93;;;;;;;3.18;98.32;100755.78;5113349;28;20194;-63
2024/01/21 00:13:44;;;;;;;5.30;5.00;;;;;;;3.01;98.23;100758.88;5113607;28;20444;-63
2024/01/21 00:16:11;;;;;;;7.00;5.90;;;;;;;3.00;98.75;100766.88;5113601;28;20194;-63
2024/01/21 00:18:38;;;;;;;7.37;6.73;;;;;;;3.00;98.80;100759.00;5113470;28;20186;-64
2024/01/21 00:21:06;;;;;;;6.00;5.50;;;;;;;2.99;98.81;100763.41;5113460;28;20727;-64
2024/01/21 00:23:32;;;;;;;5.97;5.57;;;;;;;2.92;99.08;100764.84;5113112;28;20513;-64
2024/01/21 00:25:59;;;;;;;6.10;5.73;;;;;;;2.82;99.39;100758.59;5113037;28;21017;-64
2024/01/21 00:28:27;;;;;;;6.50;6.10;;;;;;;2.79;99.50;100764.09;5112923;28;20531;-64
2024/01/21 00:30:53;;;;;;;5.97;5.57;;;;;;;2.80;100.00;100765.78;5113032;28;20440;-64
2024/01/21 00:33:21;;;;;;;7.13;6.57;;;;;;;2.83;100.00;100765.53;5113154;28;20444;-64
2024/01/21 00:35:48;;;;;;;7.77;6.63;;;;;;;2.91;100.00;100773.69;5113292;28;20534;-64
2024/01/21 00:38:16;;;;;;;6.47;6.00;;;;;;;2.93;100.00;100771.75;5112682;28;20447;-63
2024/01/21 00:40:43;;;;;;;5.97;5.57;;;;;;;2.83;100.00;100770.78;5113337;28;20525;-64
2024/01/21 00:43:09;;;;;;;6.10;5.67;;;;;;;2.85;100.00;100773.28;5112943;28;20186;-63
2024/01/21 00:45:36;;;;;;;5.53;5.13;;;;;;;2.93;100.00;100781.41;5112707;28;20658;-63
2024/01/21 00:48:03;;;;;;;5.77;5.37;;;;;;;3.00;100.00;100786.09;5112800;28;20545;-62
2024/01/21 00:50:30;;;;;;;5.90;5.57;;;;;;;3.10;100.00;100794.09;5112551;28;20665;-63
2024/01/21 00:52:57;;;;;;;6.20;5.70;;;;;;;3.10;100.00;100789.66;5112881;28;20460;-63
2024/01/21 00:55:25;;;;;;;6.20;5.70;;;;;;;2.99;99.67;100787.03;5111827;28;20195;-64
2024/01/21 00:57:52;;;;;;;6.70;6.30;;;;;;;3.05;100.00;100796.22;5112376;28;20502;-63
2024/01/21 01:00:22;;;;;;;6.07;5.67;;;;;;;3.14;100.00;100795.53;5112212;28;20658;-63
2024/01/21 01:02:48;;;;;;;5.87;5.47;;;;;;;3.19;100.00;100796.84;5113162;28;20266;-63
2024/01/21 01:05:15;;;;;;;6.57;6.07;;;;;;;3.22;99.59;100798.38;5112499;28;20493;-63
2024/01/21 01:07:42;;;;;;;5.97;5.67;;;;;;;3.23;99.36;100785.16;5111801;28;20824;-64
2024/01/21 01:10:09;;;;;;;6.53;6.03;;;;;;;3.26;99.07;100795.44;5112584;28;20440;-63
2024/01/21 01:12:37;;;;;;;6.80;6.23;;;;;;;3.29;98.66;100795.19;5112476;28;20444;-63
2024/01/21 01:15:05;;;;;;;6.00;5.70;;;;;;;3.28;97.97;100793.53;5112584;28;20436;-63
2024/01/21 01:17:32;;;;;;;6.23;5.77;;;;;;;3.26;98.86;100790.16;5111846;28;20230;-63
2024/01/21 01:19:58;;;;;;;5.40;5.00;;;;;;;3.32;98.50;100794.97;5112083;28;20195;-62
2024/01/21 01:22:25;;;;;;;5.83;5.43;;;;;;;3.36;98.58;100793.78;5112302;28;20198;-63
2024/01/21 01:24:52;;;;;;;6.87;4.97;;;;;;;3.36;98.45;100796.41;5112479;28;20440;-63
2024/01/21 01:27:18;;;;;;;5.30;4.60;;;;;;;3.31;97.68;100789.84;5111754;28;20475;-63
2024/01/21 01:29:46;;;;;;;5.97;5.50;;;;;;;3.29;97.87;100795.19;5112575;28;20191;-62
2024/01/21 01:32:13;;;;;;;5.07;4.67;;;;;;;3.29;98.56;100795.19;5111974;28;20987;-63
2024/01/21 01:34:40;;;;;;;5.57;5.20;;;;;;;3.31;98.61;100788.03;5112160;28;20456;-63
2024/01/21 01:37:08;;;;;;;5.43;5.03;;;;;;;3.30;97.78;100785.50;5112158;28;20501;-64
2024/01/21 01:39:35;;;;;;;6.83;6.20;;;;;;;3.25;97.16;100793.75;5111734;28;20468;-62
2024/01/21 01:42:02;;;;;;;7.23;6.53;;;;;;;3.24;97.25;100792.09;5112215;28;20436;-63
2024/01/21 01:44:29;;;;;;;5.53;5.20;;;;;;;3.19;97.85;100799.47;5112038;28;20452;-64
2024/01/21 01:46:57;;;;;;;6.27;5.77;;;;;;;3.12;97.30;100790.41;5111674;28;20536;-63
2024/01/21 01:49:25;;;;;;;6.23;5.67;;;;;;;3.08;97.82;100790.75;5111978;28;20497;-64
2024/01/21 01:51:51;;;;;;;4.97;4.67;;;;;;;3.02;97.50;100797.28;5111757;28;20489;-63
2024/01/21 01:54:18;;;;;;;4.90;4.50;;;;;;;2.92;98.37;100791.09;5111583;28;20444;-64
2024/01/21 01:56:45;;;;;;;4.90;4.60;;;;;;;2.77;97.89;100794.84;5111748;28;20194;-63
2024/01/21 01:59:14;;;;;;;5.67;5.07;;;;;;;2.74;98.90;100795.06;5111912;28;20432;-64
2024/01/21 02:01:41;;;;;;;5.27;4.97;;;;;;;2.72;100.00;100804.84;5112101;28;20483;-64
2024/01/21 02:04:09;;;;;;;4.60;4.40;;;;;;;2.78;100.00;100796.50;5111813;28;20497;-63
2024/01/21 02:06:36;;;;;;;5.30;4.90;;;;;;;2.72;100.00;100799.63;5114639;28;20428;-63
2024/01/21 02:09:03;;;;;;;4.53;4.23;;;;;;;2.67;100.00;100796.50;5116059;28;20505;-63
2024/01/21 02:11:30;;;;;;;4.90;4.60;;;;;;;2.69;100.00;100810.31;5115955;28;20477;-64
2024/01/21 02:13:57;;;;;;;5.57;4.37;;;;;;;2.72;99.77;100804.84;5115961;28;20448;-64
2024/01/21 02:16:23;;;;;;;5.00;4.70;;;;;;;2.72;100.00;100798.75;5115601;28;20849;-64
2024/01/21 02:18:51;;;;;;;4.83;4.43;;;;;;;2.82;100.00;100808.44;5115873;28;20501;-63
2024/01/21 02:21:19;;;;;;;4.50;4.20;;;;;;;2.82;99.83;100805.81;5115527;28;20469;-64
2024/01/21 02:23:47;;;;;;;5.33;4.93;;;;;;;2.83;99.70;100818.03;5115376;28;20931;-64
2024/01/21 02:26:14;;;;;;;5.00;4.70;;;;;;;2.78;100.00;100807.00;5115636;28;20444;-64
2024/01/21 02:28:41;;;;;;;5.10;4.80;;;;;;;2.79;99.99;100803.47;5115224;28;20510;-64
2024/01/21 02:31:08;;;;;;;4.87;4.57;;;;;;;2.81;100.00;100809.41;5115681;28;20436;-64
2024/01/21 02:33:34;;;;;;;5.40;5.10;;;;;;;2.90;99.43;100807.91;5115262;28;20487;-64
2024/01/21 02:36:01;;;;;;;5.37;5.07;;;;;;;2.90;99.89;100808.72;5115760;28;20451;-64
2024/01/21 02:38:27;;;;;;;5.00;4.63;;;;;;;2.89;99.26;100814.91;5115355;28;20509;-64
2024/01/21 02:40:55;;;;;;;5.00;4.70;;;;;;;2.84;99.35;100814.44;5115535;28;20480;-64
2024/01/21 02:43:22;;;;;;;5.27;4.97;;;;;;;2.81;99.30;100812.03;5115253;28;20202;-63
2024/01/21 02:45:48;;;;;;;6.10;5.70;;;;;;;2.78;100.00;100814.06;5115005;28;20888;-63
2024/01/21 02:48:15;;;;;;;5.27;4.90;;;;;;;2.83;99.76;100815.41;5115199;28;20905;-64
2024/01/21 02:50:42;;;;;;;5.47;5.07;;;;;;;2.86;99.04;100811.69;5114883;28;20943;-64
2024/01/21 02:53:08;;;;;;;5.23;4.93;;;;;;;2.82;98.61;100816.31;5115265;28;20436;-64
2024/01/21 02:55:35;;;;;;;5.40;5.00;;;;;;;2.77;99.25;100813.22;5114722;28;20444;-63
2024/01/21 02:58:03;;;;;;;5.90;5.53;;;;;;;2.77;100.00;100812.41;5114839;28;21074;-64
2024/01/21 03:00:30;;;;;;;6.47;5.80;;;;;;;2.69;99.86;100823.44;5114509;28;20492;-62
2024/01/21 03:02:58;;;;;;;5.77;5.27;;;;;;;2.63;99.01;100818.66;5114744;28;21016;-62
2024/01/21 03:05:25;;;;;;;5.03;4.73;;;;;;;2.63;98.93;100820.44;5114532;28;20436;-62
2024/01/21 03:07:51;;;;;;;5.13;4.73;;;;;;;2.62;99.35;100819.59;5114859;28;20524;-61
2024/01/21 03:10:18;;;;;;;5.13;4.80;;;;;;;2.51;98.50;100821.34;5114809;28;20432;-62
2024/01/21 03:12:45;;;;;;;5.57;5.27;;;;;;;2.42;99.05;100828.09;5114502;28;20443;-62
2024/01/21 03:15:13;;;;;;;6.87;5.50;;;;;;;2.38;99.25;100825.81;5114656;28;20541;-62
2024/01/21 03:17:40;;;;;;;6.27;5.77;;;;;;;2.34;99.53;100825.22;5113833;28;20462;-64
2024/01/21 03:20:07;;;;;;;5.27;4.97;;;;;;;2.24;99.47;100824.19;5114606;28;20440;-64
2024/01/21 03:22:34;;;;;;;5.97;5.53;;;;;;;2.18;100.00;100819.41;5114142;28;20440;-63
2024/01/21 03:25:01;;;;;;;5.90;5.50;;;;;;;2.11;100.00;100823.41;5114475;28;20440;-62
2024/01/21 03:27:27;;;;;;;6.83;6.33;;;;;;;2.03;100.00;100824.88;5114465;28;20472;-64
2024/01/21 03:29:55;;;;;;;8.00;7.20;;;;;;;2.03;100.00;100817.88;5113880;28;20440;-62
2024/01/21 03:32:23;;;;;;;6.93;6.33;;;;;;;2.03;100.00;100823.13;5114165;28;20870;-63
2024/01/21 03:34:51;;;;;;;8.03;7.30;;;;;;;1.92;100.00;100822.22;5114331;28;20432;-64
2024/01/21 03:37:18;;;;;;;14.17;8.83;;;;;;;1.84;100.00;100835.84;5114026;28;20440;-62
2024/01/21 03:39:45;;;;;;;9.40;8.60;;;;;;;1.86;100.00;100841.81;5113908;28;20559;-63
2024/01/21 03:42:12;;;;;;;11.30;9.77;;;;;;;1.93;100.00;100843.06;5113945;28;20951;-64
2024/01/21 03:44:38;;;;;;;19.53;12.40;;;;;;;1.92;100.00;100844.00;5114325;28;20445;-64
2024/01/21 03:47:05;;;;;;;13.67;9.77;;;;;;;1.88;100.00;100837.28;5114057;28;20497;-63
2024/01/21 03:49:34;;;;;;;11.33;9.33;;;;;;;1.90;100.00;100840.66;5113691;28;20436;-64
2024/01/21 03:52:00;;;;;;;9.87;8.83;;;;;;;1.92;100.00;100838.75;5114116;28;20481;-64
2024/01/21 03:54:27;;;;;;;9.73;8.53;;;;;;;1.95;100.00;100842.94;5113541;28;20983;-63
2024/01/21 03:56:54;;;;;;;9.00;8.10;;;;;;;1.95;100.00;100848.16;5114052;28;20501;-63
2024/01/21 03:59:20;;;;;;;9.37;8.27;;;;;;;1.94;100.00;100842.13;5113760;28;20436;-64
2024/01/21 04:01:47;;;;;;;8.70;7.70;;;;;;;1.94;100.00;100846.50;5113878;28;20466;-64
2024/01/21 04:04:14;;;;;;;9.47;8.20;;;;;;;1.92;100.00;100841.38;5113170;28;20968;-64
2024/01/21 04:06:43;;;;;;;9.57;8.60;;;;;;;1.87;100.00;100840.88;5113516;28;20952;-64
2024/01/21 04:09:10;;;;;;;9.50;8.63;;;;;;;1.87;100.00;100843.47;5113313;28;20544;-64
2024/01/21 04:11:36;;;;;;;9.73;8.77;;;;;;;1.87;100.00;100840.88;5113592;28;20498;-64
2024/01/21 04:14:03;;;;;;;10.37;8.90;;;;;;;1.88;100.00;100837.28;5113463;28;20497;-64
2024/01/21 04:16:31;;;;;;;9.20;8.33;;;;;;;1.88;100.00;100832.06;5113493;28;20494;-64
2024/01/21 04:18:57;;;;;;;10.87;9.30;;;;;;;1.86;100.00;100833.97;5113567;28;20443;-63
2024/01/21 04:21:24;;;;;;;12.93;8.90;;;;;;;1.86;100.00;100839.19;5113115;28;20972;-64
2024/01/21 04:23:52;;;;;;;10.30;8.83;;;;;;;1.88;100.00;100833.84;5113417;28;20497;-63
2024/01/21 04:26:20;;;;;;;10.03;9.00;;;;;;;1.96;100.00;100834.97;5113260;28;20436;-64
2024/01/21 04:28:47;;;;;;;9.37;8.43;;;;;;;2.05;100.00;100828.25;5112736;28;20834;-63
2024/01/21 04:31:13;;;;;;;10.93;8.90;;;;;;;2.12;100.00;100837.34;5112969;28;20440;-64
2024/01/21 04:33:40;;;;;;;9.13;8.33;;;;;;;2.18;100.00;100840.38;5113229;28;20436;-64
2024/01/21 04:36:08;;;;;;;10.67;9.03;;;;;;;2.19;100.00;100831.56;5112712;28;20498;-64
2024/01/21 04:38:35;;;;;;;9.47;8.63;;;;;;;2.33;100.00;100841.88;5113045;28;20540;-63
2024/01/21 04:41:03;;;;;;;9.70;8.83;;;;;;;2.38;100.00;100846.78;5113254;28;20472;-63
2024/01/21 04:43:30;;;;;;;9.73;8.77;;;;;;;2.41;100.00;100847.38;5112759;28;20439;-63
2024/01/21 04:45:57;;;;;;;10.37;9.47;;;;;;;2.35;100.00;100847.00;5112954;28;20869;-63
2024/01/21 04:48:23;;;;;;;10.10;8.43;;;;;;;2.37;100.00;100850.38;5112872;28;20480;-64
2024/01/21 04:50:50;;;;;;;12.53;9.37;;;;;;;2.35;100.00;100857.50;5112615;28;20572;-65
2024/01/21 04:53:17;;;;;;;11.27;9.10;;;;;;;2.35;100.00;100857.50;5112593;28;20943;-63
2024/01/21 04:55:43;;;;;;;11.43;9.87;;;;;;;2.35;100.00;100860.97;5112810;28;20440;-63
2024/01/21 04:58:11;;;;;;;12.17;9.97;;;;;;;2.38;100.00;100859.91;5112856;28;20440;-63
2024/01/21 05:00:38;;;;;;;11.60;9.73;;;;;;;2.32;100.00;100863.78;5112149;28;20428;-63
2024/01/21 05:03:05;;;;;;;11.27;10.10;;;;;;;2.24;100.00;100866.13;5112745;28;20440;-63
2024/01/21 05:05:32;;;;;;;11.53;9.47;;;;;;;2.21;100.00;100865.53;5112573;28;20449;-63
2024/01/21 05:07:59;;;;;;;11.97;10.77;;;;;;;2.18;100.00;100863.97;5112618;28;20478;-63
2024/01/21 05:10:26;;;;;;;11.60;10.33;;;;;;;2.17;100.00;100866.69;5112721;28;20442;-64
2024/01/21 05:12:52;;;;;;;14.80;11.57;;;;;;;2.14;100.00;100865.13;5112276;28;20973;-63
2024/01/21 05:15:20;;;;;;;11.90;10.80;;;;;;;2.09;100.00;100867.25;5112498;28;20510;-63
2024/01/21 05:17:47;;;;;;;16.53;11.70;;;;;;;2.05;100.00;100875.41;5112589;28;20575;-63
2024/01/21 05:20:14;;;;;;;13.13;11.33;;;;;;;1.91;100.00;100868.53;5112342;28;20467;-63
2024/01/21 05:22:41;;;;;;;17.23;11.90;;;;;;;1.82;100.00;100869.16;5112486;28;20600;-64
2024/01/21 05:25:07;;;;;;;18.80;12.97;;;;;;;1.76;100.00;100874.81;5111860;28;20440;-64
2024/01/21 05:27:35;;;;;;;20.50;12.07;;;;;;;1.71;100.00;100871.69;5111846;28;20448;-63
2024/01/21 05:30:03;;;;;;;16.37;13.03;;;;;;;1.69;100.00;100876.22;5111461;28;21853;-64
2024/01/21 05:32:32;;;;;;;17.87;13.77;;;;;;;1.62;100.00;100864.47;5109167;28;20436;-64
2024/01/21 05:34:58;;;;;;;17.70;12.80;;;;;;;1.57;100.00;100866.59;5111628;28;20975;-66
2024/01/21 05:37:25;;;;;;;18.43;13.70;;;;;;;1.60;100.00;100874.22;5111375;28;20462;-66
2024/01/21 05:39:52;;;;;;;22.70;14.70;;;;;;;1.68;100.00;100886.78;5110988;28;20471;-65
2024/01/21 05:42:18;;;;;;;26.33;17.90;;;;;;;1.59;100.00;100883.00;5110693;28;20436;-64
2024/01/21 05:44:45;;;;;;;42.80;23.97;;;;;;;1.63;100.00;100892.31;5112000;28;20436;-64
2024/01/21 05:47:12;;;;;;;46.20;25.37;;;;;;;1.73;100.00;100896.00;5111504;28;20501;-64
2024/01/21 05:49:40;;;;;;;19.60;14.00;;;;;;;1.81;100.00;100904.19;5111671;28;20472;-63
2024/01/21 05:52:07;;;;;;;16.87;12.80;;;;;;;1.87;100.00;100908.97;5111793;28;20431;-64
2024/01/21 05:54:34;;;;;;;19.67;14.90;;;;;;;1.79;100.00;100885.09;5111838;28;20497;-64
2024/01/21 05:57:00;;;;;;;22.03;14.93;;;;;;;1.85;100.00;100905.63;5111450;28;20912;-64
2024/01/21 05:59:27;;;;;;;20.30;16.13;;;;;;;1.85;100.00;100910.88;5111662;28;20446;-64
2024/01/21 06:01:54;;;;;;;21.10;16.13;;;;;;;1.88;100.00;100910.63;5111318;28;20520;-64
2024/01/21 06:04:20;;;;;;;25.13;17.43;;;;;;;1.88;100.00;100909.81;5111629;28;20432;-62
2024/01/21 06:06:48;;;;;;;31.30;21.17;;;;;;;1.97;100.00;100910.03;5111740;28;20564;-63
2024/01/21 06:09:14;;;;;;;23.03;16.53;;;;;;;2.04;100.00;100916.50;5111255;28;21024;-64
2024/01/21 06:11:43;;;;;;;23.87;16.30;;;;;;;2.05;100.00;100917.34;5111300;28;20564;-63
2024/01/21 06:14:10;;;;;;;24.23;16.70;;;;;;;2.07;100.00;100916.28;5111530;28;20237;-63
2024/01/21 06:16:37;;;;;;;26.37;17.57;;;;;;;2.08;100.00;100917.94;5111141;28;20481;-63
2024/01/21 06:19:05;;;;;;;42.53;24.93;;;;;;;2.08;100.00;100917.94;5111286;28;20444;-63
2024/01/21 06:21:32;;;;;;;35.50;22.33;;;;;;;2.15;100.00;100923.59;5111114;28;20436;-63
2024/01/21 06:24:00;;;;;;;26.97;18.27;;;;;;;2.21;100.00;100913.50;5111266;28;20436;-62
2024/01/21 06:26:27;;;;;;;28.20;19.77;;;;;;;2.36;100.00;100928.16;5111131;28;20489;-62
2024/01/21 06:28:54;;;;;;;34.73;23.43;;;;;;;2.46;100.00;100934.44;5111081;28;20483;-62
2024/01/21 06:31:20;;;;;;;33.73;23.57;;;;;;;2.55;100.00;100930.31;5111153;28;21012;-63
2024/01/21 06:33:47;;;;;;;31.43;21.60;;;;;;;2.65;100.00;100934.78;5110773;28;20455;-65
2024/01/21 06:36:14;;;;;;;22.47;17.83;;;;;;;2.75;100.00;100940.19;5110087;28;20767;-63
2024/01/21 06:38:40;;;;;;;19.37;15.73;;;;;;;2.79;100.00;100937.25;5111409;28;20498;-64
2024/01/21 06:41:08;;;;;;;18.83;13.40;;;;;;;2.86;100.00;100938.47;5100099;28;20480;-64
2024/01/21 06:43:35;;;;;;;15.63;12.57;;;;;;;2.98;100.00;100948.06;5096880;28;20191;-64
2024/01/21 06:46:02;;;;;;;14.50;12.43;;;;;;;3.11;100.00;100948.00;5111477;28;20440;-64
2024/01/21 06:48:28;;;;;;;17.13;12.90;;;;;;;3.20;100.00;100950.81;5104949;28;20491;-64
2024/01/21 06:50:56;;;;;;;13.77;12.33;;;;;;;3.27;99.92;100949.38;5104804;28;20457;-65
2024/01/21 06:53:22;;;;;;;13.97;11.40;;;;;;;3.23;98.49;100944.47;5113056;28;20828;-63
2024/01/21 06:55:49;;;;;;;12.23;11.03;;;;;;;3.35;97.59;100951.44;5114482;28;20280;-63
2024/01/21 06:58:17;;;;;;;11.57;10.33;;;;;;;3.46;96.54;100969.84;5114762;28;20519;-63
2024/01/21 07:00:50;;;;;;;13.20;10.37;;;;;;;3.49;95.71;100970.47;5114862;28;20504;-64
2024/01/21 07:03:17;;;;;;;20.50;14.13;;;;;;;3.44;93.30;100972.59;5114453;28;20729;-64
2024/01/21 07:05:44;;;;;;;16.40;13.03;;;;;;;3.50;94.52;100976.53;5114367;28;20259;-63
2024/01/21 07:08:11;;;;;;;16.87;14.07;;;;;;;3.48;93.33;100979.28;5112703;28;20191;-66
2024/01/21 07:10:38;;;;;;;13.20;12.00;;;;;;;3.40;93.94;100981.66;5113152;28;20436;-62
2024/01/21 07:13:04;;;;;;;13.60;11.20;;;;;;;3.39;94.11;100979.16;5112739;28;20456;-64
2024/01/21 07:15:33;;;;;;;12.63;11.30;;;;;;;3.40;93.37;100989.56;5114150;28;20194;-63
2024/01/21 07:17:59;;;;;;;13.33;11.97;;;;;;;3.41;93.07;100987.75;5093314;28;20778;-63
2024/01/21 07:20:26;;;;;;;12.83;11.47;;;;;;;3.47;93.39;100996.00;5093361;28;20441;-65
2024/01/21 07:22:53;;;;;;;14.27;13.07;;;;;;;3.54;93.03;100991.97;5093628;28;20444;-64
2024/01/21 07:25:19;;;;;;;17.30;12.63;;;;;;;3.55;92.96;101001.53;5093713;28;20195;-63
2024/01/21 07:27:46;;;;;;;16.33;13.23;;;;;;;3.61;92.04;100998.44;5093515;28;20641;-63
2024/01/21 07:30:13;;;;;;;14.30;12.90;;;;;;;3.58;92.13;100987.31;5097184;28;20210;-65
2024/01/21 07:32:42;;;;;;;13.33;11.97;;;;;;;3.67;91.12;101000.59;5113030;28;20187;-66
2024/01/21 07:35:09;;;;;;;12.00;10.03;;;;;;;3.72;90.58;101003.72;5114385;28;20190;-65
2024/01/21 07:37:37;;;;;;;14.63;11.80;;;;;;;3.80;91.74;101009.22;5113806;28;20240;-65
2024/01/21 07:40:04;;;;;;;15.27;12.00;;;;;;;3.96;91.84;101011.56;5113822;28;20226;-64
2024/01/21 07:42:31;;;;;;;16.70;13.27;;;;;;;4.27;92.11;101005.59;5114002;28;20195;-63
2024/01/21 07:44:58;;;;;;;17.20;14.10;;;;;;;4.67;91.20;101012.88;5113720;28;20612;-63
2024/01/21 07:47:25;;;;;;;17.63;14.00;;;;;;;5.05;86.36;101031.72;5113878;28;20203;-65
2024/01/21 07:49:53;;;;;;;17.20;15.40;;;;;;;5.47;88.31;101037.91;5114054;28;20519;-64
2024/01/21 07:52:20;;;;;;;20.23;16.40;;;;;;;5.89;84.82;101046.72;5112169;28;20186;-65
2024/01/21 07:54:47;;;;;;;20.07;15.20;;;;;;;6.25;85.10;101025.16;5111099;28;20199;-64
2024/01/21 07:57:14;;;;;;;21.67;14.70;;;;;;;6.68;81.46;101055.66;5111955;28;20676;-64
2024/01/21 07:59:41;;;;;;;18.57;14.37;;;;;;;6.91;80.44;101049.19;5111885;28;20190;-64
2024/01/21 08:02:08;;;;;;;17.37;14.17;;;;;;;7.17;78.80;101057.44;5113967;28;20243;-63
2024/01/21 08:04:35;;;;;;;22.27;16.17;;;;;;;7.13;76.92;101063.97;5113310;28;20251;-64
2024/01/21 08:07:03;;;;;;;20.47;16.27;;;;;;;7.46;78.99;101058.31;5113454;28;20190;-64
2024/01/21 08:09:30;;;;;;;21.57;16.07;;;;;;;7.77;77.34;101062.50;5111862;28;20309;-65
2024/01/21 08:11:57;;;;;;;23.17;16.87;;;;;;;7.91;75.75;101064.72;5109418;28;20281;-65
2024/01/21 08:14:23;;;;;;;38.87;23.13;;;;;;;7.95;72.90;101071.41;5113001;28;20186;-64
2024/01/21 08:16:50;;;;;;;29.10;20.27;;;;;;;8.07;75.46;101071.13;5113619;28;20200;-64
2024/01/21 08:19:19;;;;;;;27.60;18.90;;;;;;;8.27;70.10;101087.81;5111050;28;20516;-65
2024/01/21 08:21:46;;;;;;;25.30;17.40;;;;;;;8.40;71.60;101089.19;5113233;28;20666;-63
2024/01/21 08:24:14;;;;;;;20.30;15.07;;;;;;;8.55;71.95;101084.28;5111728;28;20202;-65
2024/01/21 08:26:41;;;;;;;17.23;14.50;;;;;;;8.39;71.96;101081.41;5113129;28;20194;-64
2024/01/21 08:29:07;;;;;;;16.53;14.23;;;;;;;8.52;70.94;101085.41;5111860;28;20218;-65
2024/01/21 08:31:34;;;;;;;16.33;14.20;;;;;;;8.75;69.83;101094.69;5113264;28;20247;-64
2024/01/21 08:34:01;;;;;;;16.37;13.70;;;;;;;9.06;70.87;101095.19;5112596;28;20186;-64
2024/01/21 08:36:28;;;;;;;20.27;15.50;;;;;;;9.28;69.09;101105.44;5112097;28;20630;-64
2024/01/21 08:38:54;;;;;;;17.00;15.27;;;;;;;9.24;68.14;101101.41;5112834;28;20202;-64
2024/01/21 08:41:22;;;;;;;15.47;13.87;;;;;;;9.15;66.98;101111.06;5113097;28;20560;-64
2024/01/21 08:43:49;;;;;;;11.83;10.70;;;;;;;9.17;66.15;101116.22;5113155;28;20742;-64
2024/01/21 08:46:16;;;;;;;10.93;9.93;;;;;;;8.90;67.40;101105.63;5112894;28;20724;-64
2024/01/21 08:48:44;;;;;;;11.30;7.47;;;;;;;9.96;93.30;101052.53;5111044;28;20221;-63
2024/01/21 08:51:12;;;;;;;23.97;16.60;;;;;;;10.67;71.02;101111.66;5112706;28;20659;-63
2024/01/21 08:53:39;;;;;;;8.17;7.40;;;;;;;10.74;59.87;101115.34;5112168;28;20191;-63
2024/01/21 08:56:06;;;;;;;9.17;8.47;;;;;;;10.68;58.48;101110.66;5111821;28;20193;-63
2024/01/21 08:58:34;;;;;;;9.87;8.97;;;;;;;10.14;59.91;101105.66;5109370;28;20241;-63
2024/01/21 09:01:01;;;;;;;9.87;8.97;;;;;;;9.99;60.65;101101.81;5111505;28;20277;-64
2024/01/21 09:03:28;;;;;;;8.43;7.70;;;;;;;9.69;58.25;101110.19;5112303;28;20195;-65
2024/01/21 09:05:55;;;;;;;9.80;8.93;;;;;;;9.56;61.42;101102.59;5112618;28;20227;-64
2024/01/21 09:08:22;;;;;;;10.63;9.60;;;;;;;9.57;61.64;101092.81;5112601;28;20199;-64
2024/01/21 09:10:49;;;;;;;11.63;10.43;;;;;;;10.46;84.26;101066.03;5112609;28;20278;-66
2024/01/21 09:13:17;;;;;;;11.33;10.13;;;;;;;10.56;60.95;101094.16;5111722;28;20198;-67
2024/01/21 09:15:45;;;;;;;9.33;8.63;;;;;;;10.58;61.64;101091.34;5110953;28;20228;-66
2024/01/21 09:18:12;;;;;;;9.53;8.67;;;;;;;10.31;61.68;101083.53;5111082;28;20191;-66
2024/01/21 09:20:38;;;;;;;9.77;8.87;;;;;;;10.26;64.16;101081.31;5112028;28;20187;-64
2024/01/21 09:23:05;;;;;;;9.77;8.90;;;;;;;9.90;63.49;101078.88;5111580;28;20191;-66
2024/01/21 09:25:32;;;;;;;10.90;8.60;;;;;;;9.80;62.90;101078.13;5111310;28;20190;-68
2024/01/21 09:27:58;;;;;;;10.27;8.57;;;;;;;10.38;79.61;101052.72;5111232;28;20223;-64
2024/01/21 09:30:25;;;;;;;12.83;9.70;;;;;;;10.60;60.13;101090.22;5107333;28;20728;-65
2024/01/21 09:32:53;;;;;;;10.37;8.77;;;;;;;10.55;60.31;101087.16;5110983;28;20599;-65
2024/01/21 09:35:20;;;;;;;8.00;7.27;;;;;;;10.13;56.73;101085.41;5110797;28;20248;-64
2024/01/21 09:37:47;;;;;;;7.87;7.13;;;;;;;9.82;58.12;101087.59;5111235;28;20190;-65
2024/01/21 09:40:14;;;;;;;7.53;6.97;;;;;;;9.79;59.81;101081.75;5111236;28;20223;-64
2024/01/21 09:42:39;;;;;;;5.57;5.07;;;;;;;9.41;58.36;101088.19;5111504;28;20256;-64
2024/01/21 09:45:08;;;;;;;6.20;5.67;;;;;;;8.94;59.48;101083.16;5111228;28;20199;-64
2024/01/21 09:47:38;;;;;;;6.80;6.20;;;;;;;8.35;59.63;101072.06;5111034;28;20213;-63
2024/01/21 09:50:08;;;;;;;6.50;6.10;;;;;;;8.25;62.18;101073.91;5110846;28;20275;-63
2024/01/21 09:52:35;;;;;;;6.43;6.03;;;;;;;8.25;62.29;101072.09;5108627;28;20259;-63
2024/01/21 09:55:02;;;;;;;6.20;5.80;;;;;;;8.19;62.46;101064.69;5110734;28;20247;-65
2024/01/21 09:57:28;;;;;;;9.30;8.57;;;;;;;8.26;63.77;101075.56;5111611;28;20267;-65
2024/01/21 09:59:55;;;;;;;6.60;6.00;;;;;;;8.36;63.91;101073.72;5111007;28;20222;-63
2024/01/21 10:02:23;;;;;;;5.90;5.40;;;;;;;8.14;62.34;101074.03;5111585;28;20230;-65
2024/01/21 10:04:50;;;;;;;7.90;7.30;;;;;;;8.20;63.37;101065.50;5110969;28;20650;-64
2024/01/21 10:07:18;;;;;;;8.73;7.87;;;;;;;8.31;64.07;101057.44;5111678;28;20198;-65
2024/01/21 10:09:53;;;;;;;7.60;6.93;;;;;;;8.19;63.39;101059.41;5110845;28;20723;-64
2024/01/21 10:12:23;;;;;;;8.73;7.83;;;;;;;8.20;64.74;101049.63;5111768;28;20243;-64
2024/01/21 10:14:49;;;;;;;9.23;8.33;;;;;;;7.74;66.54;101044.28;5111468;28;20193;-63
2024/01/21 10:17:16;;;;;;;10.33;9.17;;;;;;;7.38;69.10;101042.31;5111205;28;20199;-64
2024/01/21 10:19:45;;;;;;;11.70;10.03;;;;;;;7.15;69.48;101041.72;5110772;28;20670;-64
2024/01/21 10:22:14;;;;;;;14.07;9.90;;;;;;;6.98;69.38;101023.06;5111231;28;20243;-63
2024/01/21 10:24:43;;;;;;;9.37;8.53;;;;;;;7.12;70.42;101033.25;5110713;28;20282;-63
2024/01/21 10:27:10;;;;;;;12.07;10.03;;;;;;;6.87;70.04;101033.75;5111127;28;20216;-64
2024/01/21 10:29:41;;;;;;;13.00;11.47;;;;;;;6.92;71.81;101032.38;5114965;28;20226;-64
2024/01/21 10:32:09;;;;;;;16.00;13.27;;;;;;;6.73;72.96;101026.22;5115565;28;20269;-64
2024/01/21 10:34:36;;;;;;;11.27;10.17;;;;;;;6.56;73.72;101035.59;5115350;28;20202;-62
2024/01/21 10:37:04;;;;;;;11.33;10.13;;;;;;;6.63;72.39;101041.16;5115682;28;20191;-63
2024/01/21 10:39:32;;;;;;;9.83;9.03;;;;;;;6.37;71.78;101030.22;5115377;28;20232;-63
2024/01/21 10:42:00;;;;;;;10.40;9.40;;;;;;;6.57;71.15;101037.25;5115446;28;20224;-63
2024/01/21 10:44:27;;;;;;;12.87;9.63;;;;;;;6.46;71.71;101026.81;5115473;28;20247;-63
2024/01/21 10:46:56;;;;;;;12.53;11.23;;;;;;;6.17;71.83;101032.91;5115184;28;20227;-64
2024/01/21 10:49:22;;;;;;;11.47;9.43;;;;;;;5.75;74.96;101021.47;5115489;28;20191;-59
2024/01/21 10:51:53;;;;;;;11.03;9.63;;;;;;;5.54;74.68;101034.66;5115185;28;20194;-59
2024/01/21 10:54:20;;;;;;;11.37;10.27;;;;;;;5.39;76.40;101014.81;5115387;28;20190;-59
2024/01/21 10:56:48;;;;;;;12.60;11.23;;;;;;;5.44;77.59;101028.44;5115378;28;20281;-59
2024/01/21 10:59:17;;;;;;;11.60;10.40;;;;;;;5.27;77.94;101022.91;5115193;28;20245;-59
2024/01/21 11:01:45;;;;;;;11.57;9.47;;;;;;;5.03;76.99;101017.81;5115173;28;20198;-59
2024/01/21 11:04:12;;;;;;;11.57;10.27;;;;;;;5.11;78.17;101010.13;5115052;28;20569;-59
2024/01/21 11:06:44;;;;;;;15.20;12.00;;;;;;;5.06;76.34;101012.31;5115059;28;20222;-67
2024/01/21 11:09:11;;;;;;;11.67;10.57;;;;;;;5.28;78.56;101011.41;5115067;28;20188;-68
2024/01/21 11:11:42;;;;;;;10.60;9.53;;;;;;;5.10;78.19;101003.19;5114961;28;20205;-68
2024/01/21 11:14:32;;;;;;;8.90;8.30;;;;;;;5.03;76.58;101012.53;5114750;28;20219;-68
2024/01/21 11:17:01;;;;;;;16.43;10.23;;;;;;;4.93;77.02;101014.25;5115154;28;20187;-68
2024/01/21 11:19:31;;;;;;;12.93;10.50;;;;;;;4.77;78.27;101003.28;5113878;28;20190;-68
2024/01/21 11:21:59;;;;;;;10.27;9.23;;;;;;;5.01;78.60;100989.94;5114330;28;20274;-68